createdAt,value
2017-08-14T00:00:29.128Z,1015.65
2017-08-14T00:01:09.653Z,1015.67
2017-08-14T00:01:50.196Z,1015.62
2017-08-14T00:02:30.717Z,1015.65
2017-08-14T00:03:11.249Z,1015.63
2017-08-14T00:03:51.790Z,1015.61
2017-08-14T00:04:32.314Z,1015.6
2017-08-14T00:05:12.837Z,1015.64
2017-08-14T00:05:53.374Z,1015.58
2017-08-14T00:06:33.895Z,1015.63
2017-08-14T00:07:14.410Z,1015.65
2017-08-14T00:07:54.951Z,1015.64
2017-08-14T00:08:35.486Z,1015.66
2017-08-14T00:09:15.964Z,1015.61
2017-08-14T00:09:56.453Z,1015.68
2017-08-14T00:10:36.947Z,1015.67
2017-08-14T00:11:17.471Z,1015.67
2017-08-14T00:11:58.000Z,1015.66
2017-08-14T00:12:38.519Z,1015.68
2017-08-14T00:13:19.012Z,1015.66
2017-08-14T00:13:59.549Z,1015.67
2017-08-14T00:14:40.094Z,1015.65
2017-08-14T00:15:20.627Z,1015.61
2017-08-14T00:16:01.118Z,1015.64
2017-08-14T00:16:41.615Z,1015.65
2017-08-14T00:17:22.102Z,1015.65
2017-08-14T00:18:02.594Z,1015.65
2017-08-14T00:18:43.082Z,1015.66
2017-08-14T00:19:23.561Z,1015.66
2017-08-14T00:20:04.076Z,1015.63
2017-08-14T00:20:44.562Z,1015.62
2017-08-14T00:21:25.051Z,1015.63
2017-08-14T00:22:05.541Z,1015.61
2017-08-14T00:22:46.051Z,1015.63
2017-08-14T00:23:26.527Z,1015.64
2017-08-14T00:24:07.076Z,1015.63
2017-08-14T00:24:47.603Z,1015.61
2017-08-14T00:25:28.131Z,1015.63
2017-08-14T00:26:08.663Z,1015.66
2017-08-14T00:26:49.204Z,1015.62
2017-08-14T00:27:29.749Z,1015.65
2017-08-14T00:28:10.265Z,1015.64
2017-08-14T00:28:50.791Z,1015.64
2017-08-14T00:29:31.313Z,1015.6
2017-08-14T00:30:11.772Z,1015.64
2017-08-14T00:30:52.271Z,1015.65
2017-08-14T00:31:32.775Z,1015.64
2017-08-14T00:32:13.313Z,1015.59
2017-08-14T00:32:53.772Z,1015.59
2017-08-14T00:33:34.257Z,1015.6
2017-08-14T00:34:14.751Z,1015.66
2017-08-14T00:34:55.254Z,1015.62
2017-08-14T00:35:35.731Z,1015.64
2017-08-14T00:36:16.246Z,1015.66
2017-08-14T00:36:56.746Z,1015.65
2017-08-14T00:37:37.246Z,1015.67
2017-08-14T00:38:17.780Z,1015.67
2017-08-14T00:38:58.319Z,1015.71
2017-08-14T00:39:38.844Z,1015.69
2017-08-14T00:40:19.339Z,1015.69
2017-08-14T00:40:59.816Z,1015.64
2017-08-14T00:41:40.320Z,1015.63
2017-08-14T00:42:20.848Z,1015.63
2017-08-14T00:43:01.332Z,1015.63
2017-08-14T00:43:41.823Z,1015.6
2017-08-14T00:44:22.307Z,1015.59
2017-08-14T00:45:02.843Z,1015.59
2017-08-14T00:45:43.364Z,1015.63
2017-08-14T00:46:23.880Z,1015.63
2017-08-14T00:47:04.414Z,1015.61
2017-08-14T00:47:44.950Z,1015.64
2017-08-14T00:48:25.446Z,1015.64
2017-08-14T00:49:05.981Z,1015.64
2017-08-14T00:49:46.478Z,1015.65
2017-08-14T00:50:26.963Z,1015.65
2017-08-14T00:51:07.501Z,1015.65
2017-08-14T00:51:47.964Z,1015.64
2017-08-14T00:52:28.455Z,1015.63
2017-08-14T00:53:08.980Z,1015.61
2017-08-14T00:53:49.512Z,1015.61
2017-08-14T00:54:30.053Z,1015.63
2017-08-14T00:55:10.630Z,1015.59
2017-08-14T00:55:51.168Z,1015.63
2017-08-14T00:56:31.694Z,1015.59
2017-08-14T00:57:12.164Z,1015.64
2017-08-14T00:57:52.658Z,1015.58
2017-08-14T00:58:33.133Z,1015.6
2017-08-14T00:59:13.623Z,1015.59
2017-08-14T00:59:54.121Z,1015.57
2017-08-14T01:00:34.583Z,1015.59
2017-08-14T01:01:15.094Z,1015.59
2017-08-14T01:01:55.607Z,1015.58
2017-08-14T01:02:36.142Z,1015.58
2017-08-14T01:03:16.666Z,1015.6
2017-08-14T01:03:57.158Z,1015.58
2017-08-14T01:04:37.648Z,1015.58
2017-08-14T01:05:18.177Z,1015.58
2017-08-14T01:05:58.707Z,1015.58
2017-08-14T01:06:39.213Z,1015.59
2017-08-14T01:07:19.716Z,1015.55
2017-08-14T01:08:00.204Z,1015.58
2017-08-14T01:08:40.709Z,1015.55
2017-08-14T01:09:21.231Z,1015.54
2017-08-14T01:10:01.739Z,1015.6
2017-08-14T01:10:42.265Z,1015.56
2017-08-14T01:11:22.807Z,1015.54
2017-08-14T01:12:03.336Z,1015.57
2017-08-14T01:12:43.851Z,1015.53
2017-08-14T01:13:24.387Z,1015.57
2017-08-14T01:14:04.911Z,1015.54
2017-08-14T01:14:45.437Z,1015.51
2017-08-14T01:15:25.968Z,1015.54
2017-08-14T01:16:06.499Z,1015.52
2017-08-14T01:16:47.003Z,1015.51
2017-08-14T01:17:27.544Z,1015.54
2017-08-14T01:18:08.092Z,1015.5
2017-08-14T01:18:48.605Z,1015.49
2017-08-14T01:19:29.138Z,1015.52
2017-08-14T01:20:09.765Z,1015.47
2017-08-14T01:20:50.271Z,1015.45
2017-08-14T01:21:30.777Z,1015.48
2017-08-14T01:22:13.041Z,1015.47
2017-08-14T01:22:53.520Z,1015.48
2017-08-14T01:23:34.025Z,1015.44
2017-08-14T01:24:14.503Z,1015.46
2017-08-14T01:24:55.009Z,1015.46
2017-08-14T01:25:35.532Z,1015.44
2017-08-14T01:26:16.059Z,1015.46
2017-08-14T01:26:56.513Z,1015.48
2017-08-14T01:27:37.019Z,1015.46
2017-08-14T01:28:17.524Z,1015.48
2017-08-14T01:28:58.044Z,1015.46
2017-08-14T01:29:38.578Z,1015.46
2017-08-14T01:30:19.083Z,1015.47
2017-08-14T01:30:59.583Z,1015.44
2017-08-14T01:31:40.092Z,1015.43
2017-08-14T01:32:20.552Z,1015.45
2017-08-14T01:33:01.053Z,1015.44
2017-08-14T01:33:41.528Z,1015.43
2017-08-14T01:34:22.028Z,1015.43
2017-08-14T01:35:02.526Z,1015.44
2017-08-14T01:35:42.988Z,1015.39
2017-08-14T01:36:23.494Z,1015.43
2017-08-14T01:37:03.989Z,1015.43
2017-08-14T01:37:44.473Z,1015.42
2017-08-14T01:38:24.978Z,1015.38
2017-08-14T01:39:05.511Z,1015.42
2017-08-14T01:39:46.051Z,1015.41
2017-08-14T01:40:26.588Z,1015.38
2017-08-14T01:41:07.123Z,1015.41
2017-08-14T01:41:47.638Z,1015.38
2017-08-14T01:42:28.173Z,1015.36
2017-08-14T01:43:08.712Z,1015.38
2017-08-14T01:43:49.297Z,1015.35
2017-08-14T01:44:29.838Z,1015.3
2017-08-14T01:45:10.291Z,1015.32
2017-08-14T01:45:50.783Z,1015.3
2017-08-14T01:46:31.293Z,1015.29
2017-08-14T01:47:11.770Z,1015.29
2017-08-14T01:47:52.263Z,1015.28
2017-08-14T01:48:32.741Z,1015.28
2017-08-14T01:49:13.281Z,1015.31
2017-08-14T01:49:53.801Z,1015.29
2017-08-14T01:50:34.317Z,1015.29
2017-08-14T01:51:14.807Z,1015.31
2017-08-14T01:51:55.319Z,1015.29
2017-08-14T01:52:35.821Z,1015.31
2017-08-14T01:53:16.342Z,1015.25
2017-08-14T01:53:56.828Z,1015.22
2017-08-14T01:54:37.340Z,1015.24
2017-08-14T01:55:17.853Z,1015.24
2017-08-14T01:55:58.412Z,1015.19
2017-08-14T01:56:38.949Z,1015.21
2017-08-14T01:57:19.462Z,1015.16
2017-08-14T01:57:59.951Z,1015.21
2017-08-14T01:58:40.428Z,1015.19
2017-08-14T01:59:20.949Z,1015.18
2017-08-14T02:00:01.444Z,1015.16
2017-08-14T02:00:41.940Z,1015.19
2017-08-14T02:01:22.414Z,1015.21
2017-08-14T02:02:02.921Z,1015.23
2017-08-14T02:02:43.448Z,1015.23
2017-08-14T02:03:23.986Z,1015.23
2017-08-14T02:04:04.516Z,1015.23
2017-08-14T02:04:45.038Z,1015.18
2017-08-14T02:05:25.568Z,1015.2
2017-08-14T02:06:06.111Z,1015.2
2017-08-14T02:06:46.635Z,1015.2
2017-08-14T02:07:27.169Z,1015.2
2017-08-14T02:08:07.692Z,1015.21
2017-08-14T02:08:48.229Z,1015.23
2017-08-14T02:09:28.759Z,1015.23
2017-08-14T02:10:09.303Z,1015.21
2017-08-14T02:10:49.810Z,1015.22
2017-08-14T02:11:30.281Z,1015.21
2017-08-14T02:12:10.774Z,1015.19
2017-08-14T02:12:51.246Z,1015.18
2017-08-14T02:13:31.731Z,1015.22
2017-08-14T02:14:12.228Z,1015.17
2017-08-14T02:14:52.685Z,1015.2
2017-08-14T02:15:33.190Z,1015.18
2017-08-14T02:16:13.660Z,1015.17
2017-08-14T02:16:54.188Z,1015.15
2017-08-14T02:17:34.696Z,1015.13
2017-08-14T02:18:15.179Z,1015.16
2017-08-14T02:18:55.658Z,1015.13
2017-08-14T02:19:36.146Z,1015.15
2017-08-14T02:20:16.625Z,1015.15
2017-08-14T02:20:57.101Z,1015.13
2017-08-14T02:21:37.608Z,1015.12
2017-08-14T02:22:18.093Z,1015.14
2017-08-14T02:22:58.621Z,1015.14
2017-08-14T02:23:39.159Z,1015.12
2017-08-14T02:24:19.685Z,1015.14
2017-08-14T02:25:00.214Z,1015.12
2017-08-14T02:25:40.747Z,1015.12
2017-08-14T02:26:21.276Z,1015.12
2017-08-14T02:27:01.791Z,1015.13
2017-08-14T02:27:42.331Z,1015.16
2017-08-14T02:28:22.851Z,1015.13
2017-08-14T02:29:03.398Z,1015.11
2017-08-14T02:29:43.935Z,1015.11
2017-08-14T02:30:24.442Z,1015.16
2017-08-14T02:31:04.976Z,1015.06
2017-08-14T02:31:45.508Z,1015.08
2017-08-14T02:32:26.044Z,1015.1
2017-08-14T02:33:06.577Z,1015.06
2017-08-14T02:33:47.103Z,1015.06
2017-08-14T02:34:27.648Z,1015.08
2017-08-14T02:35:08.178Z,1015.06
2017-08-14T02:35:48.658Z,1015.09
2017-08-14T02:36:29.158Z,1015.04
2017-08-14T02:37:09.643Z,1015.05
2017-08-14T02:37:50.176Z,1015.08
2017-08-14T02:38:30.671Z,1015.08
2017-08-14T02:39:11.159Z,1015.04
2017-08-14T02:39:51.713Z,1015.04
2017-08-14T02:40:32.168Z,1015.05
2017-08-14T02:41:12.645Z,1015.04
2017-08-14T02:41:53.158Z,1015.05
2017-08-14T02:42:33.622Z,1015.05
2017-08-14T02:43:14.125Z,1015.01
2017-08-14T02:43:54.624Z,1015.03
2017-08-14T02:44:35.166Z,1015.02
2017-08-14T02:45:15.694Z,1015
2017-08-14T02:45:56.234Z,1015.04
2017-08-14T02:46:36.739Z,1014.99
2017-08-14T02:47:17.350Z,1015
2017-08-14T02:47:57.812Z,1014.99
2017-08-14T02:48:38.303Z,1014.96
2017-08-14T02:49:18.808Z,1014.96
2017-08-14T02:49:59.306Z,1015
2017-08-14T02:50:39.784Z,1014.97
2017-08-14T02:51:20.271Z,1014.98
2017-08-14T02:52:00.752Z,1014.98
2017-08-14T02:52:41.277Z,1014.98
2017-08-14T02:53:21.742Z,1015
2017-08-14T02:54:02.229Z,1014.97
2017-08-14T02:54:42.720Z,1014.98
2017-08-14T02:55:23.202Z,1014.97
2017-08-14T02:56:03.704Z,1014.97
2017-08-14T02:56:44.196Z,1015
2017-08-14T02:57:24.686Z,1014.99
2017-08-14T02:58:05.173Z,1014.99
2017-08-14T02:58:45.698Z,1014.97
2017-08-14T02:59:26.188Z,1014.99
2017-08-14T03:00:06.688Z,1014.97
2017-08-14T03:00:47.183Z,1015.03
2017-08-14T03:01:27.666Z,1014.99
2017-08-14T03:02:10.045Z,1015.02
2017-08-14T03:02:50.534Z,1015.01
2017-08-14T03:03:31.026Z,1015.01
2017-08-14T03:04:11.539Z,1015.01
2017-08-14T03:04:52.057Z,1015.04
2017-08-14T03:05:32.598Z,1015.06
2017-08-14T03:06:13.135Z,1015.08
2017-08-14T03:06:53.682Z,1015.05
2017-08-14T03:07:34.137Z,1015.06
2017-08-14T03:08:14.636Z,1015.07
2017-08-14T03:08:55.141Z,1015.06
2017-08-14T03:09:35.659Z,1015.07
2017-08-14T03:10:16.160Z,1015.06
2017-08-14T03:10:56.693Z,1015.07
2017-08-14T03:11:37.202Z,1015.07
2017-08-14T03:12:17.737Z,1015.07
2017-08-14T03:12:58.263Z,1015.08
2017-08-14T03:13:38.865Z,1015.07
2017-08-14T03:14:19.411Z,1015.04
2017-08-14T03:14:59.945Z,1015.03
2017-08-14T03:15:40.480Z,1015.05
2017-08-14T03:16:21.020Z,1015.08
2017-08-14T03:17:01.558Z,1015.08
2017-08-14T03:17:42.088Z,1015.1
2017-08-14T03:18:22.623Z,1015.05
2017-08-14T03:19:03.157Z,1015
2017-08-14T03:19:43.680Z,1015.03
2017-08-14T03:20:24.217Z,1015
2017-08-14T03:21:04.766Z,1014.98
2017-08-14T03:21:45.303Z,1014.97
2017-08-14T03:22:25.836Z,1014.94
2017-08-14T03:23:06.365Z,1014.99
2017-08-14T03:23:46.905Z,1014.96
2017-08-14T03:24:27.446Z,1014.96
2017-08-14T03:25:08.001Z,1014.97
2017-08-14T03:25:48.803Z,1014.97
2017-08-14T03:26:29.341Z,1014.94
2017-08-14T03:27:09.872Z,1014.92
2017-08-14T03:27:50.411Z,1014.93
2017-08-14T03:28:30.946Z,1014.93
2017-08-14T03:29:11.498Z,1014.91
2017-08-14T03:29:52.023Z,1014.96
2017-08-14T03:30:32.553Z,1014.91
2017-08-14T03:31:13.098Z,1014.94
2017-08-14T03:31:53.639Z,1014.91
2017-08-14T03:32:34.170Z,1014.91
2017-08-14T03:33:14.668Z,1014.9
2017-08-14T03:33:55.254Z,1014.92
2017-08-14T03:34:35.775Z,1014.93
2017-08-14T03:35:16.308Z,1014.9
2017-08-14T03:35:56.832Z,1014.89
2017-08-14T03:36:37.371Z,1014.88
2017-08-14T03:37:17.913Z,1014.91
2017-08-14T03:37:58.450Z,1014.89
2017-08-14T03:38:38.988Z,1014.84
2017-08-14T03:39:19.509Z,1014.83
2017-08-14T03:40:00.032Z,1014.85
2017-08-14T03:40:40.575Z,1014.84
2017-08-14T03:41:21.101Z,1014.82
2017-08-14T03:42:01.679Z,1014.82
2017-08-14T03:42:42.216Z,1014.83
2017-08-14T03:43:22.751Z,1014.84
2017-08-14T03:44:03.294Z,1014.83
2017-08-14T03:44:43.828Z,1014.82
2017-08-14T03:45:24.357Z,1014.82
2017-08-14T03:46:05.078Z,1014.83
2017-08-14T03:46:45.632Z,1014.84
2017-08-14T03:47:26.164Z,1014.84
2017-08-14T03:48:06.703Z,1014.83
2017-08-14T03:48:47.217Z,1014.83
2017-08-14T03:49:27.735Z,1014.82
2017-08-14T03:50:08.264Z,1014.83
2017-08-14T03:50:48.799Z,1014.82
2017-08-14T03:51:29.326Z,1014.86
2017-08-14T03:52:09.838Z,1014.86
2017-08-14T03:52:50.386Z,1014.9
2017-08-14T03:53:30.976Z,1014.84
2017-08-14T03:54:11.467Z,1014.87
2017-08-14T03:54:52.006Z,1014.86
2017-08-14T03:55:32.534Z,1014.88
2017-08-14T03:56:13.012Z,1014.85
2017-08-14T03:56:53.523Z,1014.85
2017-08-14T03:57:34.051Z,1014.84
2017-08-14T03:58:14.580Z,1014.85
2017-08-14T03:58:55.111Z,1014.87
2017-08-14T03:59:35.626Z,1014.86
2017-08-14T04:00:16.161Z,1014.87
2017-08-14T04:00:56.655Z,1014.89
2017-08-14T04:01:37.175Z,1014.86
2017-08-14T04:02:17.702Z,1014.88
2017-08-14T04:02:58.232Z,1014.91
2017-08-14T04:03:38.806Z,1014.87
2017-08-14T04:04:19.316Z,1014.9
2017-08-14T04:04:59.825Z,1014.85
2017-08-14T04:05:40.358Z,1014.87
2017-08-14T04:06:20.877Z,1014.86
2017-08-14T04:07:01.385Z,1014.87
2017-08-14T04:07:41.895Z,1014.89
2017-08-14T04:08:22.434Z,1014.88
2017-08-14T04:09:02.942Z,1014.87
2017-08-14T04:09:43.446Z,1014.85
2017-08-14T04:10:23.965Z,1014.89
2017-08-14T04:11:04.476Z,1014.87
2017-08-14T04:11:45.006Z,1014.83
2017-08-14T04:12:25.536Z,1014.83
2017-08-14T04:13:06.060Z,1014.86
2017-08-14T04:13:46.583Z,1014.84
2017-08-14T04:14:27.106Z,1014.86
2017-08-14T04:15:07.681Z,1014.85
2017-08-14T04:15:48.208Z,1014.89
2017-08-14T04:16:28.743Z,1014.9
2017-08-14T04:17:09.282Z,1014.9
2017-08-14T04:17:49.822Z,1014.89
2017-08-14T04:18:30.344Z,1014.88
2017-08-14T04:19:10.862Z,1014.87
2017-08-14T04:19:51.351Z,1014.91
2017-08-14T04:20:31.865Z,1014.86
2017-08-14T04:21:12.345Z,1014.87
2017-08-14T04:21:52.868Z,1014.85
2017-08-14T04:22:33.374Z,1014.85
2017-08-14T04:23:13.876Z,1014.81
2017-08-14T04:23:54.423Z,1014.84
2017-08-14T04:24:34.948Z,1014.84
2017-08-14T04:25:15.469Z,1014.86
2017-08-14T04:25:55.997Z,1014.84
2017-08-14T04:26:36.513Z,1014.85
2017-08-14T04:27:17.052Z,1014.89
2017-08-14T04:27:57.590Z,1014.86
2017-08-14T04:28:38.119Z,1014.81
2017-08-14T04:29:18.638Z,1014.81
2017-08-14T04:29:59.183Z,1014.82
2017-08-14T04:30:39.724Z,1014.83
2017-08-14T04:31:20.254Z,1014.84
2017-08-14T04:32:00.816Z,1014.86
2017-08-14T04:32:41.352Z,1014.84
2017-08-14T04:33:21.840Z,1014.82
2017-08-14T04:34:02.336Z,1014.81
2017-08-14T04:34:42.827Z,1014.82
2017-08-14T04:35:23.367Z,1014.82
2017-08-14T04:36:03.885Z,1014.8
2017-08-14T04:36:44.390Z,1014.78
2017-08-14T04:37:24.894Z,1014.78
2017-08-14T04:38:05.390Z,1014.78
2017-08-14T04:38:45.918Z,1014.8
2017-08-14T04:39:26.384Z,1014.79
2017-08-14T04:40:06.922Z,1014.78
2017-08-14T04:40:47.455Z,1014.77
2017-08-14T04:41:28.008Z,1014.79
2017-08-14T04:42:08.538Z,1014.79
2017-08-14T04:42:49.084Z,1014.81
2017-08-14T04:43:29.617Z,1014.8
2017-08-14T04:44:10.139Z,1014.78
2017-08-14T04:44:50.690Z,1014.82
2017-08-14T04:45:31.186Z,1014.79
2017-08-14T04:46:11.696Z,1014.76
2017-08-14T04:46:52.166Z,1014.76
2017-08-14T04:47:32.655Z,1014.77
2017-08-14T04:48:13.196Z,1014.78
2017-08-14T04:48:53.700Z,1014.8
2017-08-14T04:49:34.239Z,1014.76
2017-08-14T04:50:14.713Z,1014.81
2017-08-14T04:50:55.220Z,1014.81
2017-08-14T04:51:35.740Z,1014.79
2017-08-14T04:52:16.270Z,1014.79
2017-08-14T04:52:56.771Z,1014.78
2017-08-14T04:53:37.261Z,1014.78
2017-08-14T04:54:17.779Z,1014.78
2017-08-14T04:54:58.301Z,1014.78
2017-08-14T04:55:38.800Z,1014.79
2017-08-14T04:56:19.285Z,1014.77
2017-08-14T04:56:59.777Z,1014.76
2017-08-14T04:57:40.291Z,1014.77
2017-08-14T04:58:20.821Z,1014.74
2017-08-14T04:59:01.324Z,1014.74
2017-08-14T04:59:41.858Z,1014.78
2017-08-14T05:00:22.335Z,1014.75
2017-08-14T05:01:02.818Z,1014.77
2017-08-14T05:01:43.347Z,1014.79
2017-08-14T05:02:23.857Z,1014.78
2017-08-14T05:03:04.374Z,1014.76
2017-08-14T05:03:44.943Z,1014.76
2017-08-14T05:04:25.441Z,1014.74
2017-08-14T05:05:05.973Z,1014.74
2017-08-14T05:05:46.492Z,1014.72
2017-08-14T05:06:26.999Z,1014.74
2017-08-14T05:07:07.520Z,1014.74
2017-08-14T05:07:48.044Z,1014.78
2017-08-14T05:08:28.573Z,1014.77
2017-08-14T05:09:09.084Z,1014.76
2017-08-14T05:09:49.602Z,1014.81
2017-08-14T05:10:30.091Z,1014.82
2017-08-14T05:11:10.601Z,1014.8
2017-08-14T05:11:51.341Z,1014.82
2017-08-14T05:12:31.948Z,1014.82
2017-08-14T05:13:12.666Z,1014.82
2017-08-14T05:13:52.940Z,1014.8
2017-08-14T05:14:33.524Z,1014.77
2017-08-14T05:15:14.323Z,1014.79
2017-08-14T05:15:54.660Z,1014.77
2017-08-14T05:16:35.299Z,1014.75
2017-08-14T05:17:15.805Z,1014.74
2017-08-14T05:17:56.374Z,1014.82
2017-08-14T05:18:36.869Z,1014.78
2017-08-14T05:19:17.405Z,1014.79
2017-08-14T05:19:57.986Z,1014.79
2017-08-14T05:20:38.586Z,1014.79
2017-08-14T05:21:19.280Z,1014.81
2017-08-14T05:21:59.884Z,1014.79
2017-08-14T05:22:40.564Z,1014.76
2017-08-14T05:23:21.690Z,1014.77
2017-08-14T05:24:02.123Z,1014.76
2017-08-14T05:24:42.727Z,1014.78
2017-08-14T05:25:23.249Z,1014.79
2017-08-14T05:26:03.763Z,1014.74
2017-08-14T05:26:44.293Z,1014.77
2017-08-14T05:27:24.830Z,1014.79
2017-08-14T05:28:05.367Z,1014.78
2017-08-14T05:28:45.933Z,1014.77
2017-08-14T05:29:26.418Z,1014.74
2017-08-14T05:30:06.912Z,1014.79
2017-08-14T05:30:47.401Z,1014.79
2017-08-14T05:31:27.898Z,1014.77
2017-08-14T05:32:08.435Z,1014.8
2017-08-14T05:32:48.890Z,1014.78
2017-08-14T05:33:29.391Z,1014.79
2017-08-14T05:34:09.888Z,1014.84
2017-08-14T05:34:50.464Z,1014.87
2017-08-14T05:35:30.930Z,1014.85
2017-08-14T05:36:11.438Z,1014.84
2017-08-14T05:36:51.960Z,1014.86
2017-08-14T05:37:32.491Z,1014.89
2017-08-14T05:38:13.042Z,1014.88
2017-08-14T05:38:53.525Z,1014.85
2017-08-14T05:39:34.024Z,1014.87
2017-08-14T05:40:14.562Z,1014.9
2017-08-14T05:40:55.093Z,1014.91
2017-08-14T05:41:35.612Z,1014.87
2017-08-14T05:42:16.145Z,1014.89
2017-08-14T05:42:56.664Z,1014.89
2017-08-14T05:43:37.162Z,1014.89
2017-08-14T05:44:17.671Z,1014.87
2017-08-14T05:44:58.177Z,1014.82
2017-08-14T05:45:38.719Z,1014.89
2017-08-14T05:46:19.213Z,1014.86
2017-08-14T05:46:59.768Z,1014.88
2017-08-14T05:47:40.254Z,1014.9
2017-08-14T05:48:20.777Z,1014.87
2017-08-14T05:49:01.287Z,1014.86
2017-08-14T05:49:41.848Z,1014.85
2017-08-14T05:50:22.324Z,1014.85
2017-08-14T05:51:02.917Z,1014.87
2017-08-14T05:51:43.422Z,1014.88
2017-08-14T05:52:23.864Z,1014.87
2017-08-14T05:53:04.404Z,1014.85
2017-08-14T05:53:44.918Z,1014.85
2017-08-14T05:54:25.458Z,1014.86
2017-08-14T05:55:05.976Z,1014.82
2017-08-14T05:55:46.423Z,1014.82
2017-08-14T05:56:26.983Z,1014.84
2017-08-14T05:57:07.470Z,1014.84
2017-08-14T05:57:48.025Z,1014.79
2017-08-14T05:58:28.530Z,1014.79
2017-08-14T05:59:09.098Z,1014.81
2017-08-14T05:59:49.588Z,1014.81
2017-08-14T06:00:30.247Z,1014.8
2017-08-14T06:01:10.816Z,1014.8
2017-08-14T06:01:51.362Z,1014.78
2017-08-14T06:02:31.860Z,1014.8
2017-08-14T06:03:12.405Z,1014.79
2017-08-14T06:03:52.913Z,1014.77
2017-08-14T06:04:33.455Z,1014.8
2017-08-14T06:05:14.057Z,1014.73
2017-08-14T06:05:54.510Z,1014.77
2017-08-14T06:06:35.062Z,1014.77
2017-08-14T06:07:15.595Z,1014.79
2017-08-14T06:07:56.121Z,1014.76
2017-08-14T06:08:36.670Z,1014.77
2017-08-14T06:09:17.229Z,1014.81
2017-08-14T06:09:57.743Z,1014.77
2017-08-14T06:10:38.260Z,1014.77
2017-08-14T06:11:18.818Z,1014.77
2017-08-14T06:11:59.351Z,1014.74
2017-08-14T06:12:39.894Z,1014.75
2017-08-14T06:13:20.420Z,1014.72
2017-08-14T06:14:00.913Z,1014.73
2017-08-14T06:14:41.472Z,1014.74
2017-08-14T06:15:22.013Z,1014.78
2017-08-14T06:16:02.540Z,1014.74
2017-08-14T06:16:43.104Z,1014.73
2017-08-14T06:17:23.607Z,1014.72
2017-08-14T06:18:04.175Z,1014.71
2017-08-14T06:18:44.718Z,1014.69
2017-08-14T06:19:25.240Z,1014.71
2017-08-14T06:20:05.758Z,1014.73
2017-08-14T06:20:46.275Z,1014.66
2017-08-14T06:21:26.916Z,1014.69
2017-08-14T06:22:07.552Z,1014.68
2017-08-14T06:22:48.060Z,1014.66
2017-08-14T06:23:28.553Z,1014.7
2017-08-14T06:24:09.079Z,1014.68
2017-08-14T06:24:49.559Z,1014.71
2017-08-14T06:25:30.038Z,1014.7
2017-08-14T06:26:10.570Z,1014.7
2017-08-14T06:26:51.090Z,1014.71
2017-08-14T06:27:31.603Z,1014.73
2017-08-14T06:28:12.127Z,1014.71
2017-08-14T06:28:52.652Z,1014.72
2017-08-14T06:29:33.166Z,1014.68
2017-08-14T06:30:13.696Z,1014.71
2017-08-14T06:30:54.216Z,1014.73
2017-08-14T06:31:34.752Z,1014.73
2017-08-14T06:32:15.247Z,1014.73
2017-08-14T06:32:55.762Z,1014.75
2017-08-14T06:33:36.287Z,1014.78
2017-08-14T06:34:16.833Z,1014.81
2017-08-14T06:34:57.368Z,1014.83
2017-08-14T06:35:37.889Z,1014.85
2017-08-14T06:36:18.402Z,1014.83
2017-08-14T06:36:58.973Z,1014.85
2017-08-14T06:37:39.458Z,1014.86
2017-08-14T06:38:19.965Z,1014.85
2017-08-14T06:39:00.515Z,1014.86
2017-08-14T06:39:41.045Z,1014.89
2017-08-14T06:40:21.570Z,1014.87
2017-08-14T06:41:02.113Z,1014.88
2017-08-14T06:41:42.651Z,1014.84
2017-08-14T06:42:23.171Z,1014.91
2017-08-14T06:43:03.709Z,1014.87
2017-08-14T06:43:44.238Z,1014.88
2017-08-14T06:44:24.764Z,1014.89
2017-08-14T06:45:05.315Z,1014.88
2017-08-14T06:45:45.803Z,1014.9
2017-08-14T06:46:26.318Z,1014.88
2017-08-14T06:47:06.862Z,1014.91
2017-08-14T06:47:47.392Z,1014.89
2017-08-14T06:48:27.928Z,1014.88
2017-08-14T06:49:08.455Z,1014.88
2017-08-14T06:49:48.991Z,1014.91
2017-08-14T06:50:29.531Z,1014.87
2017-08-14T06:51:10.053Z,1014.88
2017-08-14T06:51:50.569Z,1014.85
2017-08-14T06:52:31.106Z,1014.88
2017-08-14T06:53:11.639Z,1014.88
2017-08-14T06:53:52.146Z,1014.89
2017-08-14T06:54:32.651Z,1014.88
2017-08-14T06:55:13.172Z,1014.84
2017-08-14T06:55:53.705Z,1014.85
2017-08-14T06:56:34.215Z,1014.88
2017-08-14T06:57:14.758Z,1014.86
2017-08-14T06:57:55.291Z,1014.86
2017-08-14T06:58:35.830Z,1014.84
2017-08-14T06:59:16.371Z,1014.85
2017-08-14T06:59:56.920Z,1014.89
2017-08-14T07:00:37.439Z,1014.84
2017-08-14T07:01:17.960Z,1014.85
2017-08-14T07:01:58.487Z,1014.86
2017-08-14T07:02:39.029Z,1014.86
2017-08-14T07:03:19.557Z,1014.89
2017-08-14T07:04:00.067Z,1014.87
2017-08-14T07:04:40.617Z,1014.83
2017-08-14T07:05:21.159Z,1014.89
2017-08-14T07:06:01.689Z,1014.9
2017-08-14T07:06:42.241Z,1014.85
2017-08-14T07:07:22.770Z,1014.84
2017-08-14T07:08:03.329Z,1014.86
2017-08-14T07:08:43.848Z,1014.85
2017-08-14T07:09:24.381Z,1014.85
2017-08-14T07:10:04.919Z,1014.86
2017-08-14T07:10:45.445Z,1014.87
2017-08-14T07:11:25.993Z,1014.88
2017-08-14T07:12:06.548Z,1014.87
2017-08-14T07:12:47.100Z,1014.83
2017-08-14T07:13:27.669Z,1014.85
2017-08-14T07:14:08.199Z,1014.86
2017-08-14T07:14:48.748Z,1014.85
2017-08-14T07:15:29.299Z,1014.86
2017-08-14T07:16:09.823Z,1014.84
2017-08-14T07:16:50.335Z,1014.84
2017-08-14T07:17:30.856Z,1014.8
2017-08-14T07:18:11.383Z,1014.84
2017-08-14T07:18:51.926Z,1014.84
2017-08-14T07:19:32.457Z,1014.84
2017-08-14T07:20:12.981Z,1014.89
2017-08-14T07:20:53.602Z,1014.87
2017-08-14T07:21:34.134Z,1014.85
2017-08-14T07:22:14.658Z,1014.82
2017-08-14T07:22:55.200Z,1014.81
2017-08-14T07:23:35.726Z,1014.87
2017-08-14T07:24:16.286Z,1014.85
2017-08-14T07:24:56.825Z,1014.79
2017-08-14T07:25:37.431Z,1014.8
2017-08-14T07:26:17.905Z,1014.8
2017-08-14T07:26:58.434Z,1014.75
2017-08-14T07:27:38.960Z,1014.77
2017-08-14T07:28:19.490Z,1014.76
2017-08-14T07:29:00.031Z,1014.76
2017-08-14T07:29:40.562Z,1014.77
2017-08-14T07:30:21.086Z,1014.78
2017-08-14T07:31:01.639Z,1014.76
2017-08-14T07:31:42.159Z,1014.76
2017-08-14T07:32:22.757Z,1014.73
2017-08-14T07:33:03.318Z,1014.73
2017-08-14T07:33:43.867Z,1014.76
2017-08-14T07:34:24.392Z,1014.75
2017-08-14T07:35:04.926Z,1014.78
2017-08-14T07:35:45.443Z,1014.74
2017-08-14T07:36:26.014Z,1014.74
2017-08-14T07:37:06.494Z,1014.71
2017-08-14T07:37:47.004Z,1014.73
2017-08-14T07:38:27.541Z,1014.71
2017-08-14T07:39:08.068Z,1014.77
2017-08-14T07:39:48.651Z,1014.74
2017-08-14T07:40:29.212Z,1014.73
2017-08-14T07:41:09.758Z,1014.73
2017-08-14T07:41:50.302Z,1014.72
2017-08-14T07:42:30.867Z,1014.67
2017-08-14T07:43:11.421Z,1014.66
2017-08-14T07:43:51.923Z,1014.69
2017-08-14T07:44:32.457Z,1014.67
2017-08-14T07:45:12.969Z,1014.65
2017-08-14T07:45:53.509Z,1014.67
2017-08-14T07:46:34.094Z,1014.71
2017-08-14T07:47:14.606Z,1014.72
2017-08-14T07:47:55.094Z,1014.69
2017-08-14T07:48:35.616Z,1014.64
2017-08-14T07:49:16.149Z,1014.65
2017-08-14T07:49:56.738Z,1014.64
2017-08-14T07:50:37.317Z,1014.65
2017-08-14T07:51:17.879Z,1014.62
2017-08-14T07:51:58.434Z,1014.6
2017-08-14T07:52:38.972Z,1014.65
2017-08-14T07:53:19.511Z,1014.59
2017-08-14T07:54:00.021Z,1014.62
2017-08-14T07:54:40.602Z,1014.59
2017-08-14T07:55:21.131Z,1014.61
2017-08-14T07:56:01.698Z,1014.58
2017-08-14T07:56:42.329Z,1014.59
2017-08-14T07:57:22.883Z,1014.57
2017-08-14T07:58:03.427Z,1014.59
2017-08-14T07:58:43.964Z,1014.56
2017-08-14T07:59:24.514Z,1014.58
2017-08-14T08:00:05.049Z,1014.55
2017-08-14T08:00:45.665Z,1014.55
2017-08-14T08:01:26.211Z,1014.49
2017-08-14T08:02:06.751Z,1014.48
2017-08-14T08:02:47.270Z,1014.51
2017-08-14T08:03:27.803Z,1014.48
2017-08-14T08:04:08.325Z,1014.45
2017-08-14T08:04:48.836Z,1014.51
2017-08-14T08:05:29.371Z,1014.48
2017-08-14T08:06:09.922Z,1014.52
2017-08-14T08:06:50.458Z,1014.49
2017-08-14T08:07:30.979Z,1014.43
2017-08-14T08:08:11.518Z,1014.48
2017-08-14T08:08:52.037Z,1014.45
2017-08-14T08:09:32.548Z,1014.44
2017-08-14T08:10:13.086Z,1014.47
2017-08-14T08:10:53.588Z,1014.5
2017-08-14T08:11:34.095Z,1014.48